Time;durP1;ratioP1;P1;durP2;ratioP2;P2;SDS_P1;SDS_P2;PMS_P1;PMS_P2;Temp;Humidity;BMP_temperature;BMP_pressure;BME280_temperature;BME280_humidity;BME280_pressure;Samples;Min_cycle;Max_cycle;Signal;HPM_P1;HPM_P2
2021/12/11 00:00:16;;;;;;;1.88;1.25;;;;;;;20.28;35.04;98616.97;5153178;27;20486;-57
2021/12/11 00:02:44;;;;;;;1.50;1.00;;;;;;;20.27;34.82;98620.91;5152992;27;20135;-57
2021/12/11 00:05:15;;;;;;;1.90;1.27;;;;;;;20.25;34.96;98622.50;5152795;27;20042;-56
2021/12/11 00:07:41;;;;;;;2.20;1.30;;;;;;;20.23;34.97;98619.34;5153016;27;20043;-57
2021/12/11 00:10:13;;;;;;;2.50;1.00;;;;;;;20.25;34.95;98616.97;5152720;27;20062;-57
2021/12/11 00:12:52;;;;;;;2.08;1.33;;;;;;;20.25;35.00;98622.50;5153036;27;20053;-57
2021/12/11 00:15:23;;;;;;;2.25;1.30;;;;;;;20.23;34.99;98624.88;5153191;27;20358;-56
2021/12/11 00:17:55;;;;;;;1.48;1.02;;;;;;;20.22;34.93;98618.53;5152818;27;20031;-44
2021/12/11 00:20:24;;;;;;;2.55;1.50;;;;;;;20.20;35.12;98615.34;5152940;27;20039;-44
2021/12/11 00:22:51;;;;;;;2.55;1.45;;;;;;;20.21;35.09;98618.91;5152764;27;20043;-44
2021/12/11 00:25:18;;;;;;;2.40;1.35;;;;;;;20.22;35.09;98612.19;5152776;27;20080;-45
2021/12/11 00:27:47;;;;;;;2.08;1.40;;;;;;;20.18;35.13;98612.16;5152686;27;20047;-57
2021/12/11 00:30:26;;;;;;;2.78;1.80;;;;;;;20.19;35.03;98632.41;5152654;27;20042;-57
2021/12/11 00:33:09;;;;;;;2.65;1.95;;;;;;;20.18;35.09;98633.59;5152762;27;20042;-57
2021/12/11 00:35:35;;;;;;;2.78;1.80;;;;;;;20.16;34.97;98627.63;5152632;27;20096;-57
2021/12/11 00:38:08;;;;;;;3.05;2.03;;;;;;;20.13;34.68;98637.50;5152775;27;20147;-57
2021/12/11 00:40:35;;;;;;;3.05;2.00;;;;;;;20.14;34.97;98644.66;5152584;27;20121;-45
2021/12/11 00:43:04;;;;;;;3.30;1.75;;;;;;;20.13;34.91;98636.72;5152281;27;20300;-57
2021/12/11 00:45:38;;;;;;;2.92;1.80;;;;;;;20.12;34.87;98630.38;5152318;27;20047;-57
2021/12/11 00:48:09;;;;;;;2.60;1.70;;;;;;;20.12;34.86;98638.72;5152218;27;20050;-57
2021/12/11 00:50:39;;;;;;;2.83;1.88;;;;;;;20.10;34.78;98640.28;5152417;27;20070;-57
2021/12/11 00:53:17;;;;;;;2.67;1.80;;;;;;;20.12;34.76;98651.78;5152266;27;20065;-57
2021/12/11 00:55:46;;;;;;;2.45;1.70;;;;;;;20.13;34.78;98642.28;5152272;27;20091;-57
2021/12/11 00:58:24;;;;;;;1.83;1.30;;;;;;;20.14;34.72;98644.66;5152162;27;20473;-57
2021/12/11 01:01:07;;;;;;;2.05;1.30;;;;;;;20.13;34.73;98648.63;5152127;27;20687;-57
2021/12/11 01:03:50;;;;;;;1.90;1.30;;;;;;;20.14;34.75;98654.97;5151970;27;20054;-57
2021/12/11 01:06:24;;;;;;;1.98;1.25;;;;;;;20.14;34.62;98652.97;5151984;27;20038;-57
2021/12/11 01:08:56;;;;;;;1.95;1.13;;;;;;;20.13;34.61;98654.19;5151970;27;20474;-44
2021/12/11 01:11:42;;;;;;;2.10;1.25;;;;;;;20.15;34.72;98656.59;5151707;27;20094;-57
2021/12/11 01:14:20;;;;;;;1.90;1.20;;;;;;;20.13;34.68;98662.50;5151956;27;20043;-57
2021/12/11 01:16:56;;;;;;;1.83;1.10;;;;;;;20.13;34.51;98659.72;5152085;27;20547;-56
2021/12/11 01:19:24;;;;;;;1.80;1.05;;;;;;;20.14;34.59;98668.84;5151873;27;20051;-57
2021/12/11 01:21:58;;;;;;;1.27;0.80;;;;;;;20.13;34.61;98670.03;5151768;27;20095;-45
2021/12/11 01:24:41;;;;;;;1.30;0.90;;;;;;;20.13;34.69;98672.81;5151787;27;20498;-45
2021/12/11 01:27:07;;;;;;;1.92;1.05;;;;;;;20.14;34.49;98682.72;5151927;27;20502;-44
2021/12/11 01:29:34;;;;;;;1.10;0.80;;;;;;;20.14;34.40;98682.72;5151920;27;20517;-44
2021/12/11 01:32:00;;;;;;;1.63;0.90;;;;;;;20.16;34.36;98700.63;5151636;27;20065;-44
2021/12/11 01:34:27;;;;;;;1.25;0.73;;;;;;;20.16;34.40;98702.59;5151984;27;20038;-44
2021/12/11 01:36:54;;;;;;;1.20;0.70;;;;;;;20.16;34.32;98711.72;5151623;27;20046;-45
2021/12/11 01:39:24;;;;;;;1.48;0.90;;;;;;;20.16;34.38;98713.69;5151439;27;20418;-45
2021/12/11 01:41:53;;;;;;;1.63;0.80;;;;;;;20.16;34.27;98717.28;5151476;27;20821;-44
2021/12/11 01:44:26;;;;;;;1.50;0.85;;;;;;;20.16;34.40;98728.38;5151435;27;20083;-57
2021/12/11 01:46:58;;;;;;;1.05;0.70;;;;;;;20.16;34.33;98724.81;5151194;27;20053;-56
2021/12/11 01:49:24;;;;;;;0.88;0.57;;;;;;;20.16;34.21;98735.91;5151531;27;20125;-57
2021/12/11 01:51:57;;;;;;;1.48;0.70;;;;;;;20.12;34.29;98735.09;5151418;27;20121;-57
2021/12/11 01:54:26;;;;;;;1.30;0.80;;;;;;;20.14;34.24;98736.28;5151278;27;20049;-57
2021/12/11 01:57:00;;;;;;;1.13;0.75;;;;;;;20.13;34.17;98731.91;5151457;27;20091;-57
2021/12/11 01:59:30;;;;;;;1.25;0.70;;;;;;;20.15;34.21;98742.66;5151188;27;20494;-56
2021/12/11 02:02:18;;;;;;;1.17;0.82;;;;;;;20.15;34.23;98734.31;5151267;27;20133;-57
2021/12/11 02:04:48;;;;;;;1.30;0.90;;;;;;;20.16;34.24;98739.50;5150034;27;20064;-57
2021/12/11 02:07:20;;;;;;;1.48;0.85;;;;;;;20.16;34.24;98742.25;5150706;27;20418;-57
2021/12/11 02:09:55;;;;;;;1.65;1.00;;;;;;;20.15;34.21;98756.53;5151070;27;20046;-57
2021/12/11 02:12:28;;;;;;;1.50;1.00;;;;;;;20.15;34.25;98762.88;5147645;27;20039;-57
2021/12/11 02:14:55;;;;;;;1.73;1.02;;;;;;;20.17;34.26;98762.50;5151549;27;20142;-56
2021/12/11 02:17:31;;;;;;;1.40;0.90;;;;;;;20.16;34.09;98769.22;5154863;27;20039;-57
2021/12/11 02:20:01;;;;;;;1.55;0.95;;;;;;;20.18;34.20;98769.63;5152623;27;20039;-57
2021/12/11 02:22:32;;;;;;;1.20;0.80;;;;;;;20.19;34.13;98768.44;5154760;27;20093;-57
2021/12/11 02:25:03;;;;;;;1.27;0.77;;;;;;;20.17;34.18;98777.16;5154581;27;20074;-44
2021/12/11 02:27:32;;;;;;;1.00;0.70;;;;;;;20.17;34.32;98779.16;5154620;27;20047;-46
2021/12/11 02:30:09;;;;;;;1.42;0.80;;;;;;;20.16;34.35;98783.91;5154351;27;20067;-45
2021/12/11 02:32:42;;;;;;;0.95;0.63;;;;;;;20.16;34.32;98786.69;5140743;27;20043;-45
2021/12/11 02:35:29;;;;;;;0.57;0.50;;;;;;;20.16;34.33;98785.91;5134087;28;20047;-44
2021/12/11 02:38:10;;;;;;;1.25;0.73;;;;;;;20.16;34.49;98783.91;5134020;28;20521;-44
2021/12/11 02:40:39;;;;;;;1.05;0.75;;;;;;;20.17;34.33;98793.03;5133734;28;20054;-45
2021/12/11 02:43:24;;;;;;;0.95;0.65;;;;;;;20.16;34.33;98792.25;5133751;28;20047;-44
2021/12/11 02:46:02;;;;;;;0.73;0.60;;;;;;;20.18;34.42;98800.97;5133737;28;20055;-45
2021/12/11 02:48:33;;;;;;;1.30;0.80;;;;;;;20.22;34.40;98801.81;5133655;28;20051;-45
2021/12/11 02:51:17;;;;;;;1.35;0.80;;;;;;;20.21;34.41;98802.16;5133473;28;20095;-44
2021/12/11 02:53:45;;;;;;;1.27;0.80;;;;;;;20.19;34.41;98793.44;5133545;28;20059;-44
2021/12/11 02:56:32;;;;;;;1.10;0.80;;;;;;;20.22;34.32;98801.03;5133423;28;20043;-57
2021/12/11 02:59:02;;;;;;;1.52;0.85;;;;;;;20.21;34.34;98805.75;5133420;28;20035;-57
2021/12/11 03:01:44;;;;;;;2.20;0.90;;;;;;;20.21;34.42;98805.75;5133685;28;20043;-57
2021/12/11 03:04:23;;;;;;;1.27;0.82;;;;;;;20.21;34.45;98810.50;5133548;28;20043;-45
2021/12/11 03:06:51;;;;;;;1.33;0.90;;;;;;;20.21;34.49;98816.84;5133145;28;20043;-57
2021/12/11 03:09:21;;;;;;;1.48;1.00;;;;;;;20.21;34.31;98816.84;5133387;28;20047;-57
2021/12/11 03:11:46;;;;;;;1.17;0.80;;;;;;;20.22;34.28;98823.22;5133012;28;20043;-57
2021/12/11 03:14:16;;;;;;;1.50;0.95;;;;;;;20.23;34.54;98824.81;5133223;28;20046;-56
2021/12/11 03:16:43;;;;;;;1.50;1.05;;;;;;;20.24;34.38;98843.88;5133012;28;20467;-57
2021/12/11 03:19:11;;;;;;;1.13;0.75;;;;;;;20.26;34.26;98837.91;5133013;28;20517;-57
2021/12/11 03:21:37;;;;;;;1.25;0.90;;;;;;;20.25;34.42;98839.91;5132932;28;20134;-57
2021/12/11 03:24:06;;;;;;;1.52;0.95;;;;;;;20.24;34.33;98829.97;5133063;28;20031;-57
2021/12/11 03:26:32;;;;;;;1.23;0.95;;;;;;;20.20;34.45;98823.59;5132902;27;20043;-57
2021/12/11 03:28:58;;;;;;;0.88;0.60;;;;;;;20.22;34.38;98835.13;5132818;28;20173;-57
2021/12/11 03:31:24;;;;;;;1.10;0.63;;;;;;;20.22;34.33;98831.56;5132918;28;20071;-57
2021/12/11 03:33:54;;;;;;;0.88;0.60;;;;;;;20.24;34.37;98840.28;5132895;28;20075;-57
2021/12/11 03:36:21;;;;;;;0.95;0.70;;;;;;;20.23;34.46;98839.50;5132839;28;20125;-57
2021/12/11 03:38:52;;;;;;;0.68;0.60;;;;;;;20.22;34.55;98845.44;5132796;28;20039;-57
2021/12/11 03:41:18;;;;;;;0.73;0.55;;;;;;;20.19;34.49;98847.00;5132795;28;20522;-57
2021/12/11 03:43:44;;;;;;;1.50;0.80;;;;;;;20.21;34.49;98854.94;5132888;28;20075;-57
2021/12/11 03:46:10;;;;;;;1.30;0.90;;;;;;;20.20;34.50;98853.34;5132534;28;20083;-56
2021/12/11 03:48:49;;;;;;;1.10;0.68;;;;;;;20.19;34.40;98860.88;5132475;28;20422;-57
2021/12/11 03:51:19;;;;;;;1.08;0.70;;;;;;;20.20;34.56;98850.56;5132630;28;20039;-57
2021/12/11 03:53:45;;;;;;;0.95;0.70;;;;;;;20.22;34.28;98853.78;5140649;27;20043;-44
2021/12/11 03:56:13;;;;;;;1.02;0.75;;;;;;;20.19;34.25;98847.00;5153159;27;20088;-57
2021/12/11 03:58:48;;;;;;;0.68;0.57;;;;;;;20.20;34.12;98851.34;5152697;27;20047;-57
2021/12/11 04:01:22;;;;;;;1.20;0.60;;;;;;;20.23;34.13;98858.94;5153135;27;20047;-57
2021/12/11 04:03:49;;;;;;;0.80;0.60;;;;;;;20.22;34.29;98857.34;5153236;27;20133;-57
2021/12/11 04:06:16;;;;;;;0.63;0.50;;;;;;;20.24;34.12;98865.28;5152978;27;20051;-45
2021/12/11 04:08:44;;;;;;;0.65;0.50;;;;;;;20.23;34.02;98866.47;5152863;27;20045;-45
2021/12/11 04:11:14;;;;;;;0.75;0.50;;;;;;;20.23;34.12;98863.69;5152929;27;20134;-45
2021/12/11 04:13:39;;;;;;;0.90;0.50;;;;;;;20.19;34.16;98860.88;5152751;27;20054;-44
2021/12/11 04:16:08;;;;;;;0.80;0.50;;;;;;;20.22;34.09;98871.22;5153112;27;20051;-44
2021/12/11 04:18:33;;;;;;;0.82;0.40;;;;;;;20.19;34.07;98876.75;5152911;27;20047;-44
2021/12/11 04:20:59;;;;;;;0.60;0.50;;;;;;;20.17;34.11;98882.69;5152822;27;20436;-44
2021/12/11 04:23:24;;;;;;;0.68;0.47;;;;;;;20.17;34.11;98877.13;5152798;27;20171;-57
2021/12/11 04:25:54;;;;;;;0.45;0.40;;;;;;;20.16;34.12;98894.19;5153018;27;20123;-57
2021/12/11 04:28:21;;;;;;;0.55;0.40;;;;;;;20.17;34.25;98890.22;5152968;27;20034;-57
2021/12/11 04:30:52;;;;;;;0.70;0.50;;;;;;;20.14;34.14;98886.22;5152784;27;20039;-57
2021/12/11 04:33:19;;;;;;;0.55;0.40;;;;;;;20.17;34.22;98887.44;5152652;27;20034;-57
2021/12/11 04:35:44;;;;;;;0.38;0.38;;;;;;;20.14;34.23;98889.00;5152623;27;20042;-57
2021/12/11 04:38:12;;;;;;;0.82;0.50;;;;;;;20.13;34.25;98892.94;5152103;27;20035;-57
2021/12/11 04:40:44;;;;;;;0.60;0.50;;;;;;;20.16;34.23;98894.97;5152371;27;20125;-57
2021/12/11 04:43:16;;;;;;;0.47;0.40;;;;;;;20.17;34.20;98893.00;5130019;27;20043;-57
2021/12/11 04:45:58;;;;;;;0.98;0.52;;;;;;;20.16;34.16;98902.50;5152287;27;20073;-57
2021/12/11 04:48:56;;;;;;;0.73;0.43;;;;;;;20.19;34.17;98904.50;5152281;27;20050;-57
2021/12/11 04:54:54;;;;;;;;;;;;;;;20.23;34.18;98914.47;5068713;28;20140;-57
2021/12/11 05:00:28;;;;;;;0.50;0.40;;;;;;;20.16;34.24;98921.94;5066694;28;20118;-57
2021/12/11 05:10:51;;;;;;;0.40;0.30;;;;;;;20.09;34.36;98922.69;5067887;28;20052;-57
2021/12/11 05:13:17;;;;;;;0.68;0.50;;;;;;;20.58;33.80;98929.88;5067883;28;20139;-57
2021/12/11 05:15:45;;;;;;;0.50;0.32;;;;;;;21.32;32.49;98940.72;5067813;28;20140;-57
2021/12/11 05:18:14;;;;;;;0.50;0.40;;;;;;;21.24;32.73;98943.81;5067706;28;20510;-57
2021/12/11 05:20:42;;;;;;;0.32;0.30;;;;;;;20.98;33.09;98942.88;5067704;28;20072;-57
2021/12/11 05:23:08;;;;;;;0.75;0.40;;;;;;;21.16;32.78;98940.22;5067535;28;20059;-44
2021/12/11 05:25:34;;;;;;;0.43;0.30;;;;;;;22.20;31.34;98947.81;5067421;28;20052;-45
2021/12/11 05:27:59;;;;;;;0.60;0.30;;;;;;;22.22;31.28;98948.22;5093788;27;20046;-56
2021/12/11 05:30:29;;;;;;;0.63;0.40;;;;;;;21.80;31.60;98946.09;5151706;27;20444;-57
2021/12/11 05:32:58;;;;;;;0.50;0.40;;;;;;;21.42;32.41;98956.66;5149275;27;20075;-57
2021/12/11 05:35:25;;;;;;;0.70;0.40;;;;;;;21.12;32.72;98959.63;5151655;27;20125;-57
2021/12/11 05:37:50;;;;;;;0.60;0.43;;;;;;;20.91;33.17;98953.94;5151874;27;20042;-57
2021/12/11 05:40:19;;;;;;;0.70;0.40;;;;;;;20.74;33.44;98960.97;5151560;27;20079;-57
2021/12/11 05:42:46;;;;;;;0.57;0.47;;;;;;;20.61;33.72;98954.91;5151424;27;20475;-57
2021/12/11 05:45:12;;;;;;;0.30;0.30;;;;;;;20.53;33.80;98963.56;5151420;27;20067;-57
2021/12/11 05:47:38;;;;;;;2.15;0.35;;;;;;;20.46;33.88;98967.09;5151242;27;20043;-57
2021/12/11 05:50:08;;;;;;;0.30;0.30;;;;;;;20.41;33.86;98980.50;5150324;27;20095;-57
2021/12/11 05:52:34;;;;;;;0.40;0.40;;;;;;;20.40;33.95;98984.47;5151493;27;20122;-57
2021/12/11 05:54:59;;;;;;;0.63;0.43;;;;;;;20.33;34.07;98985.97;5151170;27;20440;-57
2021/12/11 05:57:28;;;;;;;0.77;0.47;;;;;;;20.32;34.14;98983.59;5151625;27;20053;-57
2021/12/11 05:59:53;;;;;;;0.65;0.50;;;;;;;20.31;34.24;98990.31;5151299;27;20490;-57
2021/12/11 06:02:22;;;;;;;0.82;0.43;;;;;;;20.25;34.38;98989.88;5151314;27;20042;-57
2021/12/11 06:04:51;;;;;;;0.70;0.50;;;;;;;20.26;34.25;98993.44;5151317;27;20050;-57
2021/12/11 06:07:18;;;;;;;0.50;0.40;;;;;;;20.22;34.35;98993.41;5151113;27;20050;-57
2021/12/11 06:09:48;;;;;;;0.60;0.30;;;;;;;20.20;34.51;98990.19;5150962;27;20406;-57
2021/12/11 06:12:17;;;;;;;0.77;0.30;;;;;;;20.23;34.38;98997.00;5150998;27;20409;-56
2021/12/11 06:14:44;;;;;;;0.55;0.40;;;;;;;20.23;34.32;99016.44;5150943;27;20043;-57
2021/12/11 06:17:12;;;;;;;0.43;0.32;;;;;;;20.19;34.32;99013.59;5151234;27;20039;-57
2021/12/11 06:19:41;;;;;;;1.08;0.60;;;;;;;20.21;34.31;99021.53;5151372;27;20043;-57
2021/12/11 06:22:07;;;;;;;0.60;0.40;;;;;;;20.18;34.27;99016.75;5151310;27;20053;-57
2021/12/11 06:24:32;;;;;;;0.30;0.30;;;;;;;20.18;34.13;99017.56;5150916;27;20054;-57
2021/12/11 06:26:58;;;;;;;0.70;0.50;;;;;;;20.17;34.33;99029.84;5150971;27;20054;-57
2021/12/11 06:29:25;;;;;;;0.43;0.30;;;;;;;20.17;34.33;99038.19;5150792;27;20091;-56
2021/12/11 06:31:51;;;;;;;0.88;0.60;;;;;;;20.18;34.30;99039.78;5150661;27;20039;-56
2021/12/11 06:34:17;;;;;;;0.60;0.40;;;;;;;20.20;34.17;99033.84;5150840;27;20525;-45
2021/12/11 06:36:44;;;;;;;0.98;0.60;;;;;;;20.17;34.33;99032.63;5150922;27;20043;-44
2021/12/11 06:39:14;;;;;;;0.70;0.40;;;;;;;20.15;34.42;99036.97;5150914;27;20107;-45
2021/12/11 06:41:43;;;;;;;0.20;0.20;;;;;;;20.15;34.39;99039.75;5151055;27;20043;-44
2021/12/11 06:44:10;;;;;;;0.30;0.30;;;;;;;20.15;34.39;99037.78;5151040;27;20047;-44
2021/12/11 06:46:36;;;;;;;0.50;0.30;;;;;;;20.13;34.24;99039.31;5150689;27;20141;-45
2021/12/11 06:49:03;;;;;;;0.60;0.40;;;;;;;20.12;34.33;99038.50;5150509;27;20124;-45
2021/12/11 06:51:29;;;;;;;0.88;0.55;;;;;;;20.14;34.39;99038.91;5150586;27;20037;-44
2021/12/11 06:53:58;;;;;;;0.50;0.40;;;;;;;20.13;34.32;99045.66;5150325;27;20043;-44
2021/12/11 06:56:26;;;;;;;0.88;0.60;;;;;;;20.13;34.38;99051.22;5150525;27;20127;-44
2021/12/11 06:58:53;;;;;;;0.85;0.50;;;;;;;20.14;34.46;99052.81;5150492;27;20107;-44
2021/12/11 07:01:21;;;;;;;0.45;0.35;;;;;;;20.15;34.28;99065.53;5151585;27;20121;-44
2021/12/11 07:03:47;;;;;;;0.57;0.43;;;;;;;20.14;34.36;99077.78;5154189;27;20081;-45
2021/12/11 07:06:13;;;;;;;0.77;0.50;;;;;;;20.14;34.22;99077.78;5154066;27;20066;-45
2021/12/11 07:08:39;;;;;;;0.73;0.43;;;;;;;20.13;34.30;99080.97;5153916;27;20473;-45
2021/12/11 07:11:07;;;;;;;0.70;0.45;;;;;;;20.12;34.51;99090.47;5153613;27;20490;-45
2021/12/11 07:13:33;;;;;;;0.55;0.40;;;;;;;20.13;34.37;99103.97;5153883;27;20039;-44
2021/12/11 07:16:00;;;;;;;0.63;0.45;;;;;;;20.11;34.45;99102.75;5153800;27;20042;-45
2021/12/11 07:18:27;;;;;;;0.73;0.40;;;;;;;20.09;34.42;99100.38;5153950;27;20051;-57
2021/12/11 07:20:53;;;;;;;0.82;0.60;;;;;;;20.11;34.39;99106.34;5153730;27;20070;-57
2021/12/11 07:23:19;;;;;;;0.82;0.50;;;;;;;20.05;34.46;99102.28;5153775;27;20482;-57
2021/12/11 07:26:00;;;;;;;0.73;0.60;;;;;;;20.08;34.53;99111.84;5153666;27;20084;-57
2021/12/11 07:28:26;;;;;;;0.55;0.50;;;;;;;20.08;34.35;99112.66;5153812;27;20054;-57
2021/12/11 07:30:57;;;;;;;2.35;0.80;;;;;;;20.07;34.44;99122.13;5153750;27;20057;-57
2021/12/11 07:33:22;;;;;;;1.10;0.70;;;;;;;20.03;34.57;99113.78;5153625;27;20111;-57
2021/12/11 07:35:49;;;;;;;1.10;0.60;;;;;;;20.05;34.55;99125.28;5153781;27;20039;-45
2021/12/11 07:38:15;;;;;;;0.93;0.55;;;;;;;20.06;34.50;99128.88;5153642;27;20047;-57
2021/12/11 07:40:49;;;;;;;0.98;0.52;;;;;;;20.05;34.67;99135.59;5153548;27;20445;-57
2021/12/11 07:43:18;;;;;;;0.57;0.47;;;;;;;20.01;34.59;99129.22;5153430;27;20045;-44
2021/12/11 07:45:45;;;;;;;1.27;0.80;;;;;;;20.01;34.62;99135.56;5153304;27;20050;-45
2021/12/11 07:48:11;;;;;;;1.33;0.80;;;;;;;20.00;34.66;99135.91;5153483;27;20043;-44
2021/12/11 07:50:37;;;;;;;1.20;0.80;;;;;;;20.01;34.49;99140.31;5153490;27;20031;-44
2021/12/11 07:53:04;;;;;;;1.27;0.80;;;;;;;20.00;34.59;99139.53;5153229;27;20039;-44
2021/12/11 07:55:30;;;;;;;1.58;0.85;;;;;;;20.00;34.76;99141.47;5153188;27;20471;-45
2021/12/11 07:57:56;;;;;;;1.20;0.80;;;;;;;20.02;34.70;99147.47;5153035;27;20046;-44
2021/12/11 08:00:25;;;;;;;0.88;0.60;;;;;;;20.02;34.79;99147.47;5153228;27;20043;-44
2021/12/11 08:02:51;;;;;;;1.40;0.70;;;;;;;20.03;34.65;99154.63;5153313;27;20120;-44
2021/12/11 08:05:17;;;;;;;0.95;0.68;;;;;;;20.02;34.68;99159.38;5153120;27;20502;-46
2021/12/11 08:07:43;;;;;;;1.30;0.70;;;;;;;20.03;34.71;99166.53;5152998;27;20133;-45
2021/12/11 08:10:13;;;;;;;1.20;0.70;;;;;;;20.05;34.68;99166.13;5153076;27;20047;-57
2021/12/11 08:12:40;;;;;;;1.65;0.80;;;;;;;20.03;34.73;99165.72;5149371;27;20046;-57
2021/12/11 08:15:07;;;;;;;1.23;0.77;;;;;;;20.04;34.85;99173.66;5153117;27;20379;-57
2021/12/11 08:17:32;;;;;;;1.10;0.70;;;;;;;20.04;34.86;99170.09;5152886;27;20118;-57
2021/12/11 08:19:58;;;;;;;1.38;0.70;;;;;;;20.03;34.93;99169.28;5152857;27;20134;-57
2021/12/11 08:22:24;;;;;;;0.85;0.70;;;;;;;20.05;34.86;99183.59;5152965;27;20074;-57
2021/12/11 08:24:50;;;;;;;1.20;0.70;;;;;;;20.04;34.99;99179.22;5152784;27;20047;-57
2021/12/11 08:27:19;;;;;;;1.38;0.70;;;;;;;20.05;34.92;99189.16;5152582;27;20046;-57
2021/12/11 08:29:46;;;;;;;1.33;0.75;;;;;;;20.02;34.87;99175.22;5152776;27;20043;-57
2021/12/11 08:32:12;;;;;;;1.50;0.80;;;;;;;20.03;34.92;99197.06;5152703;27;20071;-57
2021/12/11 08:34:38;;;;;;;1.20;0.60;;;;;;;20.04;35.07;99198.66;5152821;27;20321;-57
2021/12/11 08:37:06;;;;;;;0.90;0.70;;;;;;;20.03;34.97;99191.50;5152672;27;20047;-57
2021/12/11 08:39:32;;;;;;;0.90;0.70;;;;;;;20.07;35.09;99205.44;5152554;27;20498;-57
2021/12/11 08:41:59;;;;;;;1.63;1.00;;;;;;;20.08;34.98;99212.59;5152595;27;20103;-57
2021/12/11 08:44:25;;;;;;;1.38;0.80;;;;;;;20.09;34.96;99214.19;5152264;27;20046;-57
2021/12/11 08:46:57;;;;;;;1.52;0.80;;;;;;;20.11;34.96;99211.03;5152214;27;20047;-57
2021/12/11 08:49:27;;;;;;;1.48;0.88;;;;;;;20.08;34.89;99218.16;5152335;27;20069;-57
2021/12/11 08:52:01;;;;;;;1.23;0.85;;;;;;;20.11;34.89;99224.94;5152279;27;20070;-57
2021/12/11 08:54:28;;;;;;;1.65;0.95;;;;;;;20.12;34.96;99235.66;5152251;27;20414;-57
2021/12/11 08:56:55;;;;;;;1.30;0.90;;;;;;;20.09;34.80;99230.88;5152363;27;20031;-57
2021/12/11 08:59:23;;;;;;;2.58;1.58;;;;;;;20.08;35.14;99240.38;5152094;27;20055;-57
2021/12/11 09:02:17;;;;;;;2.42;1.20;;;;;;;20.08;35.06;99247.91;5152216;27;20053;-57
2021/12/11 09:04:48;;;;;;;2.33;1.48;;;;;;;20.12;35.00;99257.06;5151797;27;20081;-57
2021/12/11 09:07:25;;;;;;;2.03;1.25;;;;;;;20.12;34.90;99266.19;5151972;27;20482;-57
2021/12/11 09:09:53;;;;;;;2.15;1.15;;;;;;;20.12;34.95;99265.41;5152017;27;21304;-56
2021/12/11 09:12:36;;;;;;;1.98;1.05;;;;;;;20.11;35.00;99270.16;5151795;27;20047;-57
2021/12/11 09:15:10;;;;;;;2.13;1.20;;;;;;;20.11;34.94;99261.81;5152047;27;20122;-57
2021/12/11 09:17:45;;;;;;;2.00;1.20;;;;;;;20.11;34.80;99272.13;5151811;27;20422;-57
2021/12/11 09:20:20;;;;;;;1.77;1.10;;;;;;;20.11;35.00;99272.13;5148377;27;20039;-57
2021/12/11 09:23:02;;;;;;;2.35;1.30;;;;;;;20.14;34.78;99286.06;5131338;28;20051;-57
2021/12/11 09:25:35;;;;;;;2.03;1.20;;;;;;;20.13;34.75;99290.00;5130943;27;20495;-57
2021/12/11 09:28:14;;;;;;;1.77;1.10;;;;;;;20.14;34.80;99288.84;5131104;28;20046;-57
2021/12/11 09:30:51;;;;;;;2.22;1.10;;;;;;;20.13;34.70;99278.09;5130898;28;20118;-57
2021/12/11 09:33:26;;;;;;;2.08;1.27;;;;;;;20.14;34.81;99294.38;5130953;28;20081;-57
2021/12/11 09:35:59;;;;;;;1.55;1.05;;;;;;;20.15;34.78;99301.56;5113606;28;20074;-57
2021/12/11 09:38:33;;;;;;;1.92;1.05;;;;;;;20.15;34.90;99306.31;5130994;28;20426;-57
2021/12/11 09:40:59;;;;;;;1.98;1.15;;;;;;;20.19;34.87;99307.16;5130968;28;20503;-57
2021/12/11 09:43:27;;;;;;;2.08;1.20;;;;;;;20.20;34.73;99311.53;5130850;28;20073;-57
2021/12/11 09:45:52;;;;;;;1.98;1.00;;;;;;;20.19;34.90;99304.38;5130750;28;20079;-57
2021/12/11 09:48:18;;;;;;;1.85;1.00;;;;;;;20.21;34.82;99311.16;5130717;28;20470;-57
2021/12/11 09:50:55;;;;;;;1.30;0.90;;;;;;;20.22;34.73;99321.13;5130515;28;20046;-57
2021/12/11 09:53:25;;;;;;;2.00;1.02;;;;;;;20.22;34.77;99321.13;5130602;28;20047;-57
2021/12/11 09:55:52;;;;;;;1.90;1.05;;;;;;;20.20;34.69;99330.97;5130672;28;20051;-57
2021/12/11 09:58:21;;;;;;;1.75;1.10;;;;;;;20.21;34.82;99330.59;5130674;28;20100;-57
2021/12/11 10:00:48;;;;;;;1.63;1.08;;;;;;;20.24;34.63;99329.06;5130551;28;20088;-57
2021/12/11 10:03:17;;;;;;;2.63;1.20;;;;;;;20.24;34.70;99326.28;5130745;28;20514;-57
2021/12/11 10:05:49;;;;;;;1.75;0.95;;;;;;;20.23;34.76;99322.72;5130546;28;20046;-57
2021/12/11 10:08:29;;;;;;;;;;;;;;;20.26;34.62;99324.75;5130701;28;20035;-56
2021/12/11 10:11:10;;;;;;;2.13;1.02;;;;;;;20.23;34.92;99322.72;5130250;28;19960;-56
2021/12/11 10:13:45;;;;;;;1.73;0.93;;;;;;;20.22;34.80;99318.34;5130407;28;20054;-56
2021/12/11 10:16:12;;;;;;;1.40;0.90;;;;;;;20.21;34.71;99321.47;5130288;28;20039;-57
2021/12/11 10:18:38;;;;;;;1.65;1.00;;;;;;;20.21;34.79;99325.03;5110614;28;20189;-44
2021/12/11 10:21:29;;;;;;;1.98;1.15;;;;;;;20.23;34.89;99321.91;5130103;28;20462;-45
2021/12/11 10:23:58;;;;;;;2.00;1.13;;;;;;;20.22;34.85;99323.91;5130227;28;20051;-44
2021/12/11 10:26:25;;;;;;;1.50;0.90;;;;;;;20.21;34.86;99330.59;5130119;28;20043;-45
2021/12/11 10:28:58;;;;;;;1.90;1.17;;;;;;;20.20;34.85;99337.34;5130078;28;20095;-45
2021/12/11 10:31:28;;;;;;;1.83;1.00;;;;;;;20.21;34.95;99341.72;5130099;28;20039;-45
2021/12/11 10:33:55;;;;;;;1.85;0.93;;;;;;;20.20;34.94;99337.34;5130025;28;20411;-45
2021/12/11 10:36:25;;;;;;;2.22;1.27;;;;;;;20.24;34.91;99343.75;5131232;27;20410;-45
2021/12/11 10:38:52;;;;;;;1.42;0.77;;;;;;;20.23;34.92;99344.13;5133774;28;20041;-44
2021/12/11 10:41:17;;;;;;;1.90;1.00;;;;;;;20.23;35.02;99350.50;5133372;28;20562;-44
2021/12/11 10:43:57;;;;;;;1.77;0.98;;;;;;;20.24;34.79;99346.53;5133478;28;20154;-45
2021/12/11 10:46:28;;;;;;;1.58;1.05;;;;;;;20.25;34.92;99339.00;5133510;28;20047;-57
2021/12/11 10:48:53;;;;;;;1.98;1.00;;;;;;;20.27;34.86;99347.75;5133585;28;20035;-57
2021/12/11 10:51:23;;;;;;;2.17;1.10;;;;;;;20.27;34.89;99353.31;5133378;28;20051;-56
2021/12/11 10:53:51;;;;;;;2.45;1.10;;;;;;;20.27;34.85;99342.19;5133150;28;20044;-56
2021/12/11 10:56:19;;;;;;;2.70;1.33;;;;;;;20.28;34.92;99344.59;5133438;28;20397;-57
2021/12/11 10:58:49;;;;;;;2.25;1.20;;;;;;;20.27;34.93;99351.34;5133199;28;20050;-57
2021/12/11 11:01:27;;;;;;;1.85;1.10;;;;;;;20.28;34.83;99354.91;5133250;28;20575;-57
2021/12/11 11:03:57;;;;;;;2.08;1.00;;;;;;;20.28;35.04;99350.16;5133136;28;20071;-57
2021/12/11 11:06:24;;;;;;;2.08;1.17;;;;;;;20.27;34.97;99344.97;5133310;28;20444;-57
2021/12/11 11:08:50;;;;;;;1.98;1.17;;;;;;;20.27;34.95;99356.88;5133475;28;20071;-57
2021/12/11 11:11:20;;;;;;;1.80;1.20;;;;;;;20.27;35.06;99362.44;5133258;28;20510;-57
2021/12/11 11:13:45;;;;;;;1.92;1.00;;;;;;;20.28;34.96;99361.25;5133106;28;20035;-57
2021/12/11 11:16:12;;;;;;;1.73;1.10;;;;;;;20.25;34.98;99350.91;5133355;28;20050;-57
2021/12/11 11:18:37;;;;;;;1.48;0.90;;;;;;;20.27;35.05;99359.66;5133319;28;20047;-58
2021/12/11 11:21:13;;;;;;;1.77;1.02;;;;;;;20.25;35.04;99359.25;5132847;28;20090;-57
2021/12/11 11:23:41;;;;;;;2.13;1.20;;;;;;;20.25;35.05;99367.56;5132942;28;20491;-57
2021/12/11 11:26:12;;;;;;;2.47;0.98;;;;;;;20.25;34.93;99366.78;5132792;28;20514;-57
2021/12/11 11:28:39;;;;;;;1.73;1.02;;;;;;;20.24;35.01;99368.75;5132760;28;20132;-44
2021/12/11 11:31:10;;;;;;;2.20;1.20;;;;;;;20.26;35.01;99376.72;5133080;28;20558;-45
2021/12/11 11:33:37;;;;;;;1.67;0.90;;;;;;;20.24;34.99;99371.53;5132774;28;20074;-57
2021/12/11 11:36:05;;;;;;;2.20;1.08;;;;;;;20.23;34.96;99369.94;5132720;28;20054;-57
2021/12/11 11:38:35;;;;;;;1.48;0.88;;;;;;;20.22;35.10;99359.19;5133060;28;20074;-57
2021/12/11 11:41:08;;;;;;;1.85;1.20;;;;;;;20.25;34.97;99364.78;5133073;28;20051;-57
2021/12/11 11:43:34;;;;;;;;;;;;;;;20.29;34.95;99368.44;5133328;28;20051;-57
2021/12/11 11:46:00;;;;;;;1.85;1.05;;;;;;;20.26;34.98;99369.16;5112349;28;19963;-57
2021/12/11 11:48:29;;;;;;;1.98;1.30;;;;;;;20.28;35.12;99371.56;5131235;27;20138;-57
2021/12/11 11:50:59;;;;;;;2.20;1.00;;;;;;;20.25;35.08;99370.34;5132529;28;20054;-57
2021/12/11 11:53:25;;;;;;;2.17;1.27;;;;;;;20.25;35.12;99373.13;5132611;28;20135;-57
2021/12/11 11:55:58;;;;;;;1.73;1.08;;;;;;;20.25;34.93;99362.03;5132655;28;20057;-57
2021/12/11 11:58:27;;;;;;;1.38;0.90;;;;;;;20.26;34.99;99357.25;5132543;28;20051;-57
2021/12/11 12:01:01;;;;;;;1.80;1.00;;;;;;;20.26;35.04;99366.41;5132543;28;20142;-57